Time;durP1;ratioP1;P1;durP2;ratioP2;P2;SDS_P1;SDS_P2;PMS_P1;PMS_P2;Temp;Humidity;BMP_temperature;BMP_pressure;BME280_temperature;BME280_humidity;BME280_pressure;Samples;Min_cycle;Max_cycle;Signal;HPM_P1;HPM_P2
2023/12/18 08:44:19;;;;;;;6.07;2.93;;;5.70;99.90;;;;;;4880805;29;20230;-72
2023/12/18 08:46:47;;;;;;;6.17;2.73;;;5.80;99.90;;;;;;4883520;29;20207;-71
2023/12/18 08:49:14;;;;;;;9.93;3.33;;;5.80;99.90;;;;;;4882939;29;20469;-72
2023/12/18 08:51:41;;;;;;;10.03;2.90;;;5.80;99.90;;;;;;4882069;29;20326;-71
2023/12/18 08:54:08;;;;;;;8.83;3.90;;;5.80;99.90;;;;;;4882298;29;20217;-70
2023/12/18 08:56:36;;;;;;;7.47;3.47;;;5.90;99.90;;;;;;4882393;29;20250;-71
2023/12/18 08:59:03;;;;;;;8.80;2.80;;;5.80;99.90;;;;;;4881770;29;20598;-72
2023/12/18 09:01:36;;;;;;;9.80;2.80;;;5.90;99.90;;;;;;4881833;29;20648;-71
2023/12/18 09:04:03;;;;;;;6.20;3.37;;;5.90;99.90;;;;;;4882003;29;20215;-71
2023/12/18 09:06:31;;;;;;;6.97;2.80;;;6.10;99.90;;;;;;4881825;29;20299;-71
2023/12/18 09:08:58;;;;;;;6.03;2.60;;;6.20;99.90;;;;;;4881607;29;20326;-71
2023/12/18 09:11:26;;;;;;;7.20;2.67;;;6.20;99.90;;;;;;4881517;29;20246;-71
2023/12/18 09:13:53;;;;;;;6.50;2.53;;;6.10;99.90;;;;;;4881726;29;20249;-71
2023/12/18 09:16:20;;;;;;;8.80;2.57;;;6.00;99.90;;;;;;4881793;29;20242;-71
2023/12/18 09:18:49;;;;;;;7.00;2.90;;;6.00;99.90;;;;;;4882072;29;20239;-71
2023/12/18 09:21:16;;;;;;;5.07;2.27;;;6.10;99.90;;;;;;4881075;29;20671;-71
2023/12/18 09:23:44;;;;;;;6.53;2.77;;;6.10;99.90;;;;;;4881895;29;20215;-72
2023/12/18 09:26:13;;;;;;;4.93;2.27;;;6.10;99.90;;;;;;4881918;29;20211;-71
2023/12/18 09:28:40;;;;;;;6.27;3.43;;;6.10;99.90;;;;;;4881624;29;20239;-71
2023/12/18 09:31:07;;;;;;;8.37;3.53;;;6.00;99.90;;;;;;4881583;29;20242;-71
2023/12/18 09:33:34;;;;;;;5.37;2.40;;;6.10;99.90;;;;;;4881499;29;20211;-71
2023/12/18 09:36:03;;;;;;;9.37;3.20;;;6.20;99.90;;;;;;4881919;29;20214;-71
2023/12/18 09:38:30;;;;;;;6.93;2.97;;;6.10;99.90;;;;;;4881577;29;20246;-72
2023/12/18 09:40:57;;;;;;;6.33;3.10;;;6.10;99.90;;;;;;4881539;29;20333;-71
2023/12/18 09:43:26;;;;;;;5.50;2.27;;;6.10;99.90;;;;;;4881396;29;20234;-72
2023/12/18 09:45:56;;;;;;;7.33;2.60;;;6.10;99.90;;;;;;4881724;29;20444;-74
2023/12/18 09:48:23;;;;;;;6.97;2.77;;;6.10;99.90;;;;;;4881401;29;20230;-73
2023/12/18 09:50:51;;;;;;;10.80;3.30;;;6.20;99.90;;;;;;4881151;29;20270;-71
2023/12/18 09:53:22;;;;;;;11.57;2.87;;;6.30;99.90;;;;;;4881451;29;20257;-71
2023/12/18 09:55:51;;;;;;;7.57;2.53;;;6.30;99.90;;;;;;4881577;29;20302;-71
2023/12/18 09:58:19;;;;;;;5.50;2.23;;;6.40;99.90;;;;;;4881357;29;20208;-71
2023/12/18 10:00:48;;;;;;;5.77;2.67;;;6.50;99.90;;;;;;4881127;29;20247;-71
2023/12/18 10:03:16;;;;;;;4.80;2.20;;;6.50;99.90;;;;;;4881458;29;20207;-73
2023/12/18 10:05:44;;;;;;;7.73;2.80;;;6.40;99.90;;;;;;4881544;29;20211;-70
2023/12/18 10:08:11;;;;;;;5.33;2.57;;;6.50;99.90;;;;;;4881199;29;20211;-71
2023/12/18 10:10:39;;;;;;;4.67;2.13;;;6.40;99.90;;;;;;4881371;29;20247;-73
2023/12/18 10:13:08;;;;;;;6.43;2.80;;;6.40;99.90;;;;;;4880829;29;20639;-72
2023/12/18 10:15:37;;;;;;;5.43;2.50;;;6.40;99.90;;;;;;4881280;29;20682;-71
2023/12/18 10:18:05;;;;;;;7.47;2.60;;;6.50;99.90;;;;;;4881175;29;20211;-71
2023/12/18 10:20:35;;;;;;;9.10;2.67;;;6.50;99.90;;;;;;4881596;29;20262;-70
2023/12/18 10:23:02;;;;;;;7.60;2.60;;;6.30;99.90;;;;;;4880968;29;20227;-71
2023/12/18 10:25:30;;;;;;;6.47;2.90;;;6.30;99.90;;;;;;4879638;29;20567;-70
2023/12/18 10:27:59;;;;;;;8.23;3.43;;;6.30;99.90;;;;;;4877223;29;20242;-71
2023/12/18 10:30:27;;;;;;;6.97;2.67;;;6.30;99.90;;;;;;4879327;29;20234;-70
2023/12/18 10:32:54;;;;;;;6.80;2.60;;;6.30;99.90;;;;;;4880749;29;20242;-71
2023/12/18 10:35:22;;;;;;;6.80;2.57;;;6.40;99.90;;;;;;4898568;29;20214;-72
2023/12/18 10:37:52;;;;;;;7.57;2.70;;;6.40;99.90;;;;;;4869217;29;20220;-73
2023/12/18 10:40:22;;;;;;;4.13;2.47;;;6.60;99.90;;;;;;4880030;29;20239;-71
2023/12/18 10:42:59;;;;;;;8.57;2.60;;;6.60;99.90;;;;;;4861305;29;20228;-71
2023/12/18 10:45:28;;;;;;;6.07;2.77;;;6.60;99.90;;;;;;4886045;29;20221;-71
2023/12/18 10:47:56;;;;;;;5.23;2.80;;;6.50;99.90;;;;;;4879851;29;20753;-71
2023/12/18 10:50:27;;;;;;;5.43;2.47;;;6.50;99.90;;;;;;4880217;29;20725;-70
2023/12/18 10:52:58;;;;;;;7.17;3.40;;;6.50;99.90;;;;;;4879737;29;20714;-70
2023/12/18 10:55:34;;;;;;;6.97;2.60;;;6.60;99.90;;;;;;5151536;27;20551;-71
2023/12/18 10:58:02;;;;;;;6.17;2.87;;;6.80;99.90;;;;;;5151733;27;20294;-69
2023/12/18 11:00:30;;;;;;;5.03;2.40;;;6.90;99.90;;;;;;5151398;27;20550;-71
2023/12/18 11:02:59;;;;;;;6.20;2.53;;;6.80;99.90;;;;;;5151623;27;20679;-69
2023/12/18 11:05:26;;;;;;;5.17;2.90;;;6.80;99.90;;;;;;5151423;27;20204;-69
2023/12/18 11:07:54;;;;;;;6.83;2.13;;;6.80;99.90;;;;;;5151331;27;20718;-70
2023/12/18 11:10:22;;;;;;;8.17;2.70;;;6.80;99.90;;;;;;5151798;27;20247;-69
2023/12/18 11:12:57;;;;;;;26.63;3.77;;;6.70;99.90;;;;;;5151377;27;20590;-72
2023/12/18 11:15:35;;;;;;;4.77;2.50;;;6.70;99.90;;;;;;5151396;27;20227;-70
2023/12/18 11:18:15;;;;;;;4.50;2.10;;;6.60;99.90;;;;;;5151330;27;20527;-70
2023/12/18 11:20:43;;;;;;;5.77;2.40;;;6.60;99.90;;;;;;5154216;27;20561;-69
2023/12/18 11:23:12;;;;;;;3.60;2.13;;;6.80;99.90;;;;;;5151598;27;20207;-70
2023/12/18 11:25:43;;;;;;;5.77;2.70;;;6.80;99.90;;;;;;5151439;27;20360;-71
2023/12/18 11:28:12;;;;;;;11.33;2.70;;;6.80;99.90;;;;;;5150990;27;20197;-71
2023/12/18 11:30:42;;;;;;;6.27;2.80;;;6.80;99.90;;;;;;5151292;27;20204;-72
2023/12/18 11:33:11;;;;;;;11.10;2.30;;;6.70;99.90;;;;;;5151499;27;20642;-70
2023/12/18 11:35:43;;;;;;;5.97;3.07;;;6.70;99.90;;;;;;5151020;27;20274;-70
2023/12/18 11:38:14;;;;;;;4.97;2.27;;;6.60;99.90;;;;;;5151266;27;20207;-71
2023/12/18 11:40:43;;;;;;;5.43;2.07;;;6.60;99.90;;;;;;5151200;27;20233;-70
2023/12/18 11:43:13;;;;;;;7.00;3.17;;;6.70;99.90;;;;;;5150786;27;20630;-70
2023/12/18 11:45:42;;;;;;;6.33;2.40;;;6.70;99.90;;;;;;5151397;27;20232;-70
2023/12/18 11:48:14;;;;;;;5.40;2.40;;;6.70;99.90;;;;;;5151031;27;20250;-70
2023/12/18 11:50:42;;;;;;;12.37;4.10;;;6.70;99.90;;;;;;5151100;27;20205;-74
2023/12/18 11:53:19;;;;;;;6.53;2.87;;;6.70;99.90;;;;;;5150984;27;20197;-69
2023/12/18 11:55:51;;;;;;;6.93;2.70;;;6.80;99.90;;;;;;5150658;27;20224;-70
2023/12/18 11:58:21;;;;;;;7.20;2.33;;;6.80;99.90;;;;;;5150600;27;20196;-70
2023/12/18 12:00:48;;;;;;;7.23;2.70;;;6.70;99.90;;;;;;5145814;27;20208;-70
2023/12/18 12:03:16;;;;;;;9.63;2.97;;;6.80;99.90;;;;;;5150416;27;20244;-70
2023/12/18 12:05:47;;;;;;;5.33;2.30;;;6.70;99.90;;;;;;5143540;27;20269;-70
2023/12/18 12:08:13;;;;;;;8.23;2.73;;;6.70;99.90;;;;;;5136751;27;20205;-71
2023/12/18 12:10:42;;;;;;;7.43;2.80;;;6.60;99.90;;;;;;5136698;27;20206;-72
2023/12/18 12:13:16;;;;;;;9.63;3.43;;;6.60;99.90;;;;;;5136605;27;20735;-70
2023/12/18 12:15:53;;;;;;;5.17;2.57;;;6.60;99.90;;;;;;5136730;27;20235;-70
2023/12/18 12:18:20;;;;;;;9.33;3.00;;;6.50;99.90;;;;;;5136664;27;20201;-70
2023/12/18 12:20:47;;;;;;;11.43;3.33;;;6.60;99.90;;;;;;5136482;27;20540;-70
2023/12/18 12:23:13;;;;;;;7.47;3.00;;;6.60;99.90;;;;;;5136657;27;20208;-70
2023/12/18 12:25:41;;;;;;;6.80;2.03;;;6.60;99.90;;;;;;5133261;27;20261;-70
2023/12/18 12:28:08;;;;;;;7.43;2.77;;;6.60;99.90;;;;;;5134691;27;20247;-70
2023/12/18 12:30:36;;;;;;;8.23;3.57;;;6.60;99.90;;;;;;5122927;27;20706;-70
2023/12/18 12:33:05;;;;;;;9.70;3.20;;;6.40;99.90;;;;;;5129365;27;20277;-71
2023/12/18 12:35:33;;;;;;;9.13;3.60;;;6.30;99.90;;;;;;5140286;27;20229;-71
2023/12/18 12:38:01;;;;;;;5.93;2.57;;;6.30;99.90;;;;;;5138989;27;20197;-70
2023/12/18 12:40:38;;;;;;;8.73;2.97;;;6.40;99.90;;;;;;5134651;27;20243;-70
2023/12/18 12:43:06;;;;;;;6.97;3.27;;;6.40;99.90;;;;;;5133959;27;20299;-70
2023/12/18 12:45:33;;;;;;;7.90;2.70;;;6.50;99.90;;;;;;5135486;27;20236;-68
2023/12/18 12:48:00;;;;;;;7.00;2.93;;;6.40;99.90;;;;;;5135045;27;20208;-70
2023/12/18 12:50:29;;;;;;;7.30;2.50;;;6.30;99.90;;;;;;5137189;27;20265;-69
2023/12/18 12:53:00;;;;;;;7.80;2.80;;;6.20;99.90;;;;;;5135665;27;20319;-70
2023/12/18 12:55:27;;;;;;;6.60;2.80;;;6.20;99.90;;;;;;5133327;27;20257;-69
2023/12/18 12:57:54;;;;;;;8.77;2.93;;;6.10;99.90;;;;;;5134063;27;20659;-71
2023/12/18 13:00:22;;;;;;;8.50;2.50;;;6.10;99.90;;;;;;5133896;27;20705;-70
2023/12/18 13:02:49;;;;;;;8.83;3.30;;;6.10;99.90;;;;;;5133333;27;20646;-70
2023/12/18 13:05:16;;;;;;;5.97;2.77;;;6.20;99.90;;;;;;5133811;27;20609;-71
2023/12/18 13:07:46;;;;;;;10.43;3.67;;;6.20;99.90;;;;;;5134841;27;20197;-70
2023/12/18 13:10:13;;;;;;;9.07;3.37;;;6.30;99.90;;;;;;5133449;27;20246;-71
2023/12/18 13:12:40;;;;;;;6.10;2.73;;;6.40;99.90;;;;;;5133707;27;20561;-69
2023/12/18 13:15:07;;;;;;;10.03;3.27;;;6.50;99.90;;;;;;5133999;27;20632;-71
2023/12/18 13:17:34;;;;;;;6.17;2.27;;;6.30;99.90;;;;;;5132539;27;20248;-70
2023/12/18 13:20:02;;;;;;;9.97;3.00;;;6.20;99.90;;;;;;5134129;27;20220;-71
2023/12/18 13:22:29;;;;;;;7.53;3.03;;;6.00;99.90;;;;;;5133709;27;20201;-71
2023/12/18 13:24:58;;;;;;;6.97;2.83;;;6.10;99.90;;;;;;5133381;27;20205;-71
2023/12/18 13:27:26;;;;;;;9.27;2.53;;;6.20;99.90;;;;;;5136982;27;20205;-70
2023/12/18 13:29:53;;;;;;;5.53;2.50;;;6.30;99.90;;;;;;5133015;27;20726;-70
2023/12/18 13:32:21;;;;;;;7.57;3.37;;;6.20;99.90;;;;;;5127002;27;20256;-70
2023/12/18 13:34:48;;;;;;;6.97;2.47;;;6.10;99.90;;;;;;5133455;27;20229;-70
2023/12/18 13:37:15;;;;;;;8.07;3.07;;;6.00;99.90;;;;;;5133170;27;20212;-70
2023/12/18 13:39:42;;;;;;;7.40;2.60;;;5.90;99.90;;;;;;5132856;27;20224;-69
2023/12/18 13:42:11;;;;;;;7.10;3.07;;;5.90;99.90;;;;;;5133410;27;20193;-69
2023/12/18 13:44:38;;;;;;;6.50;2.80;;;5.80;99.90;;;;;;5133813;27;20200;-70
2023/12/18 13:47:06;;;;;;;7.80;2.60;;;5.80;99.90;;;;;;5132321;27;20216;-71
2023/12/18 13:49:33;;;;;;;7.23;3.20;;;5.90;99.90;;;;;;5132817;27;20231;-69
2023/12/18 13:52:00;;;;;;;8.20;2.97;;;5.90;99.90;;;;;;5145455;27;20208;-69
2023/12/18 13:54:27;;;;;;;8.43;3.03;;;5.90;99.90;;;;;;5132281;27;20229;-70
2023/12/18 13:56:54;;;;;;;11.63;4.20;;;6.00;99.90;;;;;;5133069;27;20193;-69
2023/12/18 13:59:22;;;;;;;8.97;3.23;;;6.10;99.90;;;;;;5133051;27;20587;-68
2023/12/18 14:01:49;;;;;;;7.77;3.23;;;6.00;99.90;;;;;;5132420;27;20261;-68
2023/12/18 14:04:16;;;;;;;9.20;3.10;;;6.00;99.90;;;;;;5133011;27;20208;-68
2023/12/18 14:06:43;;;;;;;7.20;2.73;;;5.90;99.90;;;;;;5132328;27;20201;-69
2023/12/18 14:09:10;;;;;;;6.50;3.23;;;6.00;99.90;;;;;;5132285;27;20256;-72
2023/12/18 14:11:38;;;;;;;7.80;3.20;;;6.00;99.90;;;;;;5132769;27;20197;-71
2023/12/18 14:14:05;;;;;;;7.47;3.13;;;5.90;99.90;;;;;;5132891;27;20205;-72
2023/12/18 14:16:33;;;;;;;8.50;3.20;;;5.80;99.90;;;;;;5132086;27;20209;-70
2023/12/18 14:19:00;;;;;;;6.53;2.80;;;5.90;99.90;;;;;;5132578;27;20303;-70
2023/12/18 14:21:31;;;;;;;7.13;3.53;;;5.80;99.90;;;;;;5132365;27;20215;-70
2023/12/18 14:23:58;;;;;;;6.00;3.10;;;5.80;99.90;;;;;;5132413;27;20201;-71
2023/12/18 14:26:25;;;;;;;8.77;3.27;;;5.60;99.90;;;;;;5134025;27;20237;-70
2023/12/18 14:28:52;;;;;;;6.37;2.87;;;5.60;99.90;;;;;;5131874;27;20595;-68
2023/12/18 14:31:19;;;;;;;7.13;2.37;;;5.60;99.90;;;;;;5131917;27;20209;-69
2023/12/18 14:33:47;;;;;;;6.47;3.13;;;5.70;99.90;;;;;;5127841;27;20209;-71
2023/12/18 14:36:14;;;;;;;7.63;3.37;;;5.70;99.90;;;;;;5131981;27;20691;-69
2023/12/18 14:38:41;;;;;;;6.37;2.33;;;5.80;99.90;;;;;;5132044;27;20213;-69
2023/12/18 14:41:08;;;;;;;7.23;3.00;;;5.70;99.90;;;;;;5132299;27;20204;-68
2023/12/18 14:43:37;;;;;;;9.17;3.17;;;5.70;99.90;;;;;;5131778;27;20292;-69
2023/12/18 14:46:05;;;;;;;6.87;3.20;;;5.70;99.90;;;;;;5131590;27;20201;-69
2023/12/18 14:48:32;;;;;;;7.17;2.50;;;5.80;99.90;;;;;;5131829;27;20231;-69
2023/12/18 14:51:00;;;;;;;8.20;3.17;;;5.80;99.90;;;;;;5132755;27;20201;-69
2023/12/18 14:53:27;;;;;;;16.57;2.70;;;5.70;99.90;;;;;;5131770;27;20670;-70
2023/12/18 14:55:54;;;;;;;7.23;2.87;;;5.60;99.90;;;;;;5131691;28;20250;-70
2023/12/18 14:58:21;;;;;;;12.30;3.17;;;5.70;99.90;;;;;;5131990;28;20276;-69
2023/12/18 15:00:48;;;;;;;4.73;2.33;;;5.70;99.90;;;;;;5132048;28;20211;-69
2023/12/18 15:03:15;;;;;;;6.43;2.70;;;5.90;99.90;;;;;;5131770;27;20663;-69
2023/12/18 15:05:47;;;;;;;6.43;2.23;;;5.90;99.90;;;;;;5132392;28;20209;-69
2023/12/18 15:08:15;;;;;;;7.77;2.83;;;6.00;99.90;;;;;;5131301;28;20208;-69
2023/12/18 15:10:42;;;;;;;8.03;2.40;;;5.90;99.90;;;;;;5132074;27;20228;-69
2023/12/18 15:13:10;;;;;;;11.40;2.67;;;5.70;99.90;;;;;;5132343;28;20208;-69
2023/12/18 15:15:37;;;;;;;5.60;2.30;;;5.50;99.90;;;;;;5131363;28;20709;-70
2023/12/18 15:18:04;;;;;;;5.77;2.50;;;5.40;99.90;;;;;;5132276;28;20280;-69
2023/12/18 15:20:31;;;;;;;4.33;2.50;;;5.30;99.90;;;;;;5131560;28;20655;-70
2023/12/18 15:22:58;;;;;;;5.87;2.77;;;5.30;99.90;;;;;;5131536;27;20201;-68
2023/12/18 15:25:26;;;;;;;5.27;2.63;;;5.30;99.90;;;;;;5131364;28;20623;-69
2023/12/18 15:27:55;;;;;;;6.57;2.97;;;5.20;99.90;;;;;;5131501;28;20197;-69
2023/12/18 15:30:22;;;;;;;7.43;2.87;;;5.20;99.90;;;;;;5131524;27;20325;-69
2023/12/18 15:32:49;;;;;;;4.17;2.60;;;5.30;99.90;;;;;;5133608;27;20236;-69
2023/12/18 15:35:17;;;;;;;6.20;2.70;;;5.20;99.90;;;;;;5131943;28;20260;-70
2023/12/18 15:37:44;;;;;;;6.57;2.33;;;5.20;99.90;;;;;;5131657;28;20208;-70
2023/12/18 15:40:12;;;;;;;9.37;2.40;;;5.30;99.90;;;;;;5131926;27;20619;-67
2023/12/18 15:42:40;;;;;;;8.90;3.13;;;5.30;99.90;;;;;;5135912;27;20262;-71
2023/12/18 15:45:08;;;;;;;13.40;5.77;;;5.30;99.90;;;;;;5135346;27;20201;-70
2023/12/18 15:47:35;;;;;;;5.57;2.13;;;5.30;99.90;;;;;;5135784;27;20209;-70
2023/12/18 15:50:02;;;;;;;7.37;2.53;;;5.30;99.90;;;;;;5136017;27;20233;-69
2023/12/18 15:52:29;;;;;;;9.33;2.97;;;5.30;99.90;;;;;;5135994;27;20200;-70
2023/12/18 15:54:56;;;;;;;5.93;2.40;;;5.20;99.90;;;;;;5135134;27;20283;-70
2023/12/18 15:57:25;;;;;;;6.93;2.87;;;5.30;99.90;;;;;;5134966;27;20208;-68
2023/12/18 15:59:54;;;;;;;8.47;3.17;;;5.30;99.90;;;;;;5135873;27;20260;-68
2023/12/18 16:02:21;;;;;;;8.93;3.07;;;5.20;99.90;;;;;;5135387;27;20209;-70
2023/12/18 16:04:48;;;;;;;8.70;3.37;;;5.30;99.90;;;;;;5135332;27;20201;-71
2023/12/18 16:07:15;;;;;;;9.63;3.97;;;5.40;99.90;;;;;;5135603;27;20208;-68
2023/12/18 16:09:42;;;;;;;9.53;3.07;;;5.40;99.90;;;;;;5134643;27;20320;-70
2023/12/18 16:12:10;;;;;;;8.97;2.77;;;5.50;99.90;;;;;;5135579;27;20254;-69
2023/12/18 16:14:37;;;;;;;8.37;2.57;;;5.50;99.90;;;;;;5135156;27;20197;-69
2023/12/18 16:17:05;;;;;;;6.63;2.73;;;5.50;99.90;;;;;;5129200;27;20228;-69
2023/12/18 16:19:33;;;;;;;8.57;2.83;;;5.40;99.90;;;;;;5135147;27;20678;-71
2023/12/18 16:22:00;;;;;;;9.57;4.10;;;5.40;99.90;;;;;;5134541;27;20201;-70
2023/12/18 16:24:27;;;;;;;6.77;2.83;;;5.30;99.90;;;;;;5134560;27;20236;-70
2023/12/18 16:26:54;;;;;;;7.87;3.03;;;5.40;99.90;;;;;;5134949;27;20208;-69
2023/12/18 16:29:21;;;;;;;8.87;3.33;;;5.30;99.90;;;;;;5137961;27;20221;-72
2023/12/18 16:31:49;;;;;;;5.83;2.80;;;5.30;99.90;;;;;;5139012;27;20253;-71
2023/12/18 16:34:17;;;;;;;7.87;3.13;;;5.40;99.90;;;;;;5139619;27;20192;-70
2023/12/18 16:36:44;;;;;;;7.93;2.87;;;5.40;99.90;;;;;;5143158;27;20324;-70
2023/12/18 16:39:11;;;;;;;9.93;3.20;;;5.50;99.90;;;;;;5134308;27;20698;-71
2023/12/18 16:41:41;;;;;;;8.33;3.47;;;5.40;99.90;;;;;;5135752;27;20201;-71
2023/12/18 16:44:09;;;;;;;11.30;3.33;;;5.40;99.90;;;;;;5134656;27;20200;-72
2023/12/18 16:46:36;;;;;;;11.47;3.27;;;5.40;99.90;;;;;;5133754;27;20200;-71
2023/12/18 16:49:03;;;;;;;8.73;3.70;;;5.40;99.90;;;;;;5134696;27;20225;-72
2023/12/18 16:51:31;;;;;;;11.00;2.83;;;5.30;99.90;;;;;;5134010;27;20189;-71
2023/12/18 16:53:58;;;;;;;10.27;3.57;;;5.30;99.90;;;;;;5129279;27;20289;-83
2023/12/18 16:56:25;;;;;;;5.93;2.87;;;5.40;99.90;;;;;;5135324;27;20702;-71
2023/12/18 16:58:52;;;;;;;8.43;3.57;;;5.30;99.90;;;;;;5135708;27;20266;-70
2023/12/18 17:01:21;;;;;;;7.20;2.67;;;5.40;99.90;;;;;;5135755;27;20601;-71
2023/12/18 17:03:49;;;;;;;9.00;4.33;;;5.40;99.90;;;;;;5135659;27;20213;-71
2023/12/18 17:06:16;;;;;;;10.73;3.63;;;5.50;99.90;;;;;;5135608;27;20284;-73
2023/12/18 17:08:44;;;;;;;10.17;3.87;;;5.50;99.90;;;;;;5135699;27;20217;-70
2023/12/18 17:11:11;;;;;;;7.63;3.00;;;5.50;99.90;;;;;;5135948;27;20201;-72
2023/12/18 17:13:38;;;;;;;6.03;2.90;;;5.50;99.90;;;;;;5134962;27;20219;-71
2023/12/18 17:16:06;;;;;;;7.47;3.43;;;5.40;99.90;;;;;;5135133;27;20295;-70
2023/12/18 17:18:33;;;;;;;7.10;3.37;;;5.40;99.90;;;;;;5136085;27;20224;-76
2023/12/18 17:21:00;;;;;;;8.73;3.70;;;5.50;99.90;;;;;;5136687;27;20232;-71
2023/12/18 17:23:26;;;;;;;9.33;3.30;;;5.50;99.90;;;;;;5139087;27;20204;-74
2023/12/18 17:25:55;;;;;;;8.90;3.30;;;5.50;99.90;;;;;;5135293;27;20240;-73
2023/12/18 17:28:22;;;;;;;7.00;3.63;;;5.60;99.90;;;;;;5135298;27;20253;-77
2023/12/18 17:30:50;;;;;;;9.53;3.50;;;5.70;99.90;;;;;;5135311;27;20205;-77
2023/12/18 17:33:17;;;;;;;9.17;3.60;;;5.70;99.90;;;;;;5135359;27;20201;-79
2023/12/18 17:35:44;;;;;;;9.50;3.50;;;5.80;99.90;;;;;;5134664;27;20755;-72
2023/12/18 17:38:11;;;;;;;7.27;2.93;;;5.70;99.90;;;;;;5128685;27;20238;-71
2023/12/18 17:40:38;;;;;;;9.50;4.33;;;5.60;99.90;;;;;;5149458;27;20737;-72
2023/12/18 17:43:06;;;;;;;7.63;3.30;;;5.70;99.90;;;;;;5136127;27;20204;-73
2023/12/18 17:45:33;;;;;;;9.00;4.13;;;5.60;99.90;;;;;;5133183;27;20228;-73
2023/12/18 17:48:00;;;;;;;7.63;2.97;;;5.60;99.90;;;;;;5129085;27;20201;-73
2023/12/18 17:50:27;;;;;;;9.67;3.17;;;5.60;99.90;;;;;;5133426;27;20333;-74
2023/12/18 17:52:54;;;;;;;12.30;3.77;;;5.60;99.90;;;;;;5132086;27;20193;-72
2023/12/18 17:55:21;;;;;;;9.33;3.53;;;5.60;99.90;;;;;;5132918;27;20223;-73
2023/12/18 17:57:48;;;;;;;7.07;3.40;;;5.60;99.90;;;;;;5132470;27;20224;-73
2023/12/18 18:00:17;;;;;;;8.93;4.27;;;5.60;99.90;;;;;;5132457;27;20225;-73
2023/12/18 18:02:44;;;;;;;10.50;5.27;;;5.50;99.90;;;;;;5132867;27;20255;-71
2023/12/18 18:05:12;;;;;;;8.90;2.87;;;5.60;99.90;;;;;;5132733;27;20208;-77
2023/12/18 18:07:38;;;;;;;7.60;3.40;;;5.50;99.90;;;;;;5132101;27;20258;-72
2023/12/18 18:10:07;;;;;;;6.37;2.93;;;5.50;99.90;;;;;;5132923;27;20227;-72
2023/12/18 18:12:34;;;;;;;9.67;3.23;;;5.40;99.90;;;;;;5133024;27;20196;-71
2023/12/18 18:15:01;;;;;;;8.80;3.33;;;5.40;99.90;;;;;;5133040;27;20569;-70
2023/12/18 18:17:29;;;;;;;11.13;3.47;;;5.50;99.90;;;;;;5133077;27;20309;-71
2023/12/18 18:19:56;;;;;;;7.13;3.13;;;5.60;99.90;;;;;;5133402;27;20229;-73
2023/12/18 18:22:23;;;;;;;7.30;2.70;;;5.60;99.90;;;;;;5133414;27;20205;-74
2023/12/18 18:24:50;;;;;;;7.17;3.23;;;5.60;99.90;;;;;;5133124;27;20240;-76
2023/12/18 18:27:17;;;;;;;5.37;3.30;;;5.60;99.90;;;;;;5117199;27;20231;-73
2023/12/18 18:29:48;;;;;;;12.00;3.67;;;5.60;99.90;;;;;;5119830;27;20235;-73
2023/12/18 18:32:15;;;;;;;7.97;3.47;;;5.60;99.90;;;;;;5133453;27;20647;-72
2023/12/18 18:34:48;;;;;;;9.33;3.40;;;5.60;99.90;;;;;;5134595;27;20205;-76
2023/12/18 18:37:15;;;;;;;9.03;3.43;;;5.50;99.90;;;;;;5133949;27;20236;-75
2023/12/18 18:39:43;;;;;;;6.60;3.23;;;5.60;99.90;;;;;;5133671;27;20578;-75
2023/12/18 18:42:09;;;;;;;10.13;4.83;;;5.60;99.90;;;;;;5133574;27;20248;-73
2023/12/18 18:44:37;;;;;;;9.67;2.97;;;5.50;99.90;;;;;;5133396;27;20197;-71
2023/12/18 18:47:04;;;;;;;7.97;3.00;;;5.40;99.90;;;;;;5133834;27;20200;-72
2023/12/18 18:49:32;;;;;;;7.63;3.17;;;5.40;99.90;;;;;;5133059;27;20270;-72
2023/12/18 18:52:00;;;;;;;8.13;3.20;;;5.50;99.90;;;;;;5132885;27;20204;-73
2023/12/18 18:54:27;;;;;;;12.93;3.53;;;5.40;99.90;;;;;;5120426;27;20213;-81
2023/12/18 18:56:54;;;;;;;8.43;2.60;;;5.50;99.90;;;;;;5126231;27;20229;-80
2023/12/18 18:59:21;;;;;;;5.97;2.90;;;5.40;99.90;;;;;;5125295;27;20234;-80
2023/12/18 19:01:49;;;;;;;6.73;2.37;;;5.50;99.90;;;;;;5128160;27;20201;-78
2023/12/18 19:04:15;;;;;;;8.97;2.67;;;5.60;99.90;;;;;;5124561;27;20197;-78
2023/12/18 19:06:42;;;;;;;10.20;3.70;;;5.70;99.90;;;;;;5130332;27;20225;-82
2023/12/18 19:09:11;;;;;;;9.57;3.70;;;5.70;99.90;;;;;;5140660;27;20220;-79
2023/12/18 19:11:38;;;;;;;7.43;3.47;;;5.70;99.90;;;;;;5133591;27;20258;-78
2023/12/18 19:14:05;;;;;;;10.40;3.90;;;5.70;99.90;;;;;;5133067;27;20201;-78
2023/12/18 19:16:31;;;;;;;8.17;3.20;;;5.80;99.90;;;;;;5134993;27;20227;-82
2023/12/18 19:18:59;;;;;;;8.83;3.70;;;5.80;99.90;;;;;;5136933;27;20319;-79
2023/12/18 19:21:26;;;;;;;6.70;2.60;;;5.70;99.90;;;;;;5138767;27;20196;-77
2023/12/18 19:23:53;;;;;;;6.80;2.80;;;5.70;99.90;;;;;;5137908;27;20565;-84
2023/12/18 19:26:21;;;;;;;9.17;3.07;;;5.80;99.90;;;;;;5134665;27;20213;-78
2023/12/18 19:28:48;;;;;;;5.03;2.57;;;5.70;99.90;;;;;;5126338;27;20230;-80
2023/12/18 19:31:15;;;;;;;8.70;3.80;;;5.80;99.90;;;;;;5134537;27;20228;-77
2023/12/18 19:33:42;;;;;;;9.17;3.53;;;5.70;99.90;;;;;;5136495;27;20563;-77
2023/12/18 19:36:15;;;;;;;8.83;3.47;;;5.70;99.90;;;;;;5136762;27;20248;-77
2023/12/18 19:38:43;;;;;;;9.03;3.57;;;5.90;99.90;;;;;;5135945;27;20683;-76
2023/12/18 19:41:10;;;;;;;8.13;2.73;;;5.90;99.90;;;;;;5137213;27;20219;-75
2023/12/18 19:43:38;;;;;;;8.07;3.43;;;5.90;99.90;;;;;;5136841;27;20264;-75
2023/12/18 19:46:05;;;;;;;9.00;3.90;;;5.80;99.90;;;;;;5136876;27;20209;-75
2023/12/18 19:48:34;;;;;;;9.87;3.73;;;5.80;99.90;;;;;;5136738;27;20225;-75
2023/12/18 19:51:01;;;;;;;9.23;3.20;;;5.80;99.90;;;;;;5137304;27;20605;-75
2023/12/18 19:53:28;;;;;;;10.20;4.00;;;5.90;99.90;;;;;;5136767;27;20255;-74
2023/12/18 19:55:55;;;;;;;7.47;2.80;;;5.90;99.90;;;;;;5136821;27;20209;-73
2023/12/18 19:58:23;;;;;;;9.40;3.50;;;6.00;99.90;;;;;;5125445;27;20663;-74
2023/12/18 20:00:52;;;;;;;6.50;3.30;;;6.00;99.90;;;;;;5136086;27;20631;-74
2023/12/18 20:03:19;;;;;;;13.13;4.17;;;6.00;99.90;;;;;;5136518;27;20253;-76
2023/12/18 20:05:46;;;;;;;9.57;3.40;;;5.90;99.90;;;;;;5136169;27;20288;-75
2023/12/18 20:08:13;;;;;;;8.33;3.47;;;5.80;99.90;;;;;;5136572;27;20211;-73
2023/12/18 20:10:40;;;;;;;7.73;3.07;;;5.80;99.90;;;;;;5136105;27;20205;-75
2023/12/18 20:13:07;;;;;;;8.53;3.27;;;5.80;99.90;;;;;;5136546;27;20240;-72
2023/12/18 20:15:34;;;;;;;9.13;3.73;;;5.80;99.90;;;;;;5136210;27;20604;-73
2023/12/18 20:18:02;;;;;;;8.37;3.60;;;5.80;99.90;;;;;;5131750;27;20225;-75
2023/12/18 20:20:29;;;;;;;11.37;3.63;;;5.90;99.90;;;;;;5120731;27;20290;-75
2023/12/18 20:22:56;;;;;;;7.30;3.63;;;5.90;99.90;;;;;;5136193;27;20201;-76
2023/12/18 20:25:23;;;;;;;6.30;2.50;;;6.00;99.90;;;;;;5136208;27;20201;-74
2023/12/18 20:27:50;;;;;;;5.87;2.67;;;6.00;99.90;;;;;;5135582;27;20211;-74
2023/12/18 20:30:17;;;;;;;5.30;2.50;;;6.00;99.90;;;;;;5136133;27;20357;-73
2023/12/18 20:32:44;;;;;;;7.07;3.00;;;6.00;99.90;;;;;;5136295;27;20197;-75
2023/12/18 20:35:13;;;;;;;5.23;2.83;;;5.90;99.90;;;;;;5138608;27;20226;-74
2023/12/18 20:37:40;;;;;;;7.60;3.57;;;5.80;99.90;;;;;;5140414;27;20225;-75
2023/12/18 20:40:09;;;;;;;8.80;3.10;;;5.70;99.90;;;;;;5140028;27;20698;-74
2023/12/18 20:42:38;;;;;;;10.13;3.57;;;5.70;99.90;;;;;;5138826;27;20205;-71
2023/12/18 20:45:06;;;;;;;10.97;3.90;;;5.80;99.90;;;;;;5136429;27;20200;-71
2023/12/18 20:47:33;;;;;;;8.57;4.23;;;5.70;99.90;;;;;;5136080;27;20212;-70
2023/12/18 20:50:01;;;;;;;6.53;3.00;;;5.70;99.90;;;;;;5135585;27;20861;-70
2023/12/18 20:52:30;;;;;;;7.07;3.30;;;5.70;99.90;;;;;;5129217;27;20209;-70
2023/12/18 20:54:59;;;;;;;7.80;3.00;;;5.80;99.90;;;;;;5125561;27;20213;-70
2023/12/18 20:57:26;;;;;;;5.33;2.67;;;5.80;99.90;;;;;;5135858;27;20237;-72
2023/12/18 20:59:53;;;;;;;6.00;2.67;;;5.80;99.90;;;;;;5135699;27;20227;-71
2023/12/18 21:02:23;;;;;;;6.00;2.63;;;5.80;99.90;;;;;;5135760;27;20690;-71
2023/12/18 21:04:50;;;;;;;6.07;2.80;;;5.80;99.90;;;;;;5134594;27;20639;-70
2023/12/18 21:07:17;;;;;;;7.67;3.23;;;5.80;99.90;;;;;;5135452;27;20204;-72
2023/12/18 21:09:46;;;;;;;7.67;3.30;;;5.80;99.90;;;;;;5135273;27;20261;-71
2023/12/18 21:12:13;;;;;;;8.37;2.83;;;5.90;99.90;;;;;;5135385;27;20563;-71
2023/12/18 21:14:40;;;;;;;9.63;3.10;;;6.00;99.90;;;;;;5121860;27;20201;-72
2023/12/18 21:17:07;;;;;;;7.40;3.43;;;5.90;99.90;;;;;;5134998;27;20648;-74
2023/12/18 21:19:35;;;;;;;7.60;2.60;;;5.90;99.90;;;;;;5135412;27;20243;-71
2023/12/18 21:22:02;;;;;;;9.17;3.20;;;5.90;99.90;;;;;;5135010;27;20560;-71
2023/12/18 21:24:29;;;;;;;7.90;2.80;;;6.00;99.90;;;;;;5135020;27;20270;-71
2023/12/18 21:26:57;;;;;;;7.20;3.17;;;6.00;99.90;;;;;;5126715;27;20213;-71
2023/12/18 21:29:24;;;;;;;8.90;3.67;;;6.00;99.90;;;;;;5124452;27;20256;-71
2023/12/18 21:31:51;;;;;;;7.03;3.40;;;6.00;99.90;;;;;;5134857;27;20200;-71
2023/12/18 21:34:18;;;;;;;12.40;3.10;;;5.90;99.90;;;;;;5135034;27;20242;-71
2023/12/18 21:36:47;;;;;;;9.70;3.33;;;5.90;99.90;;;;;;5134697;27;20315;-72
2023/12/18 21:39:14;;;;;;;10.27;3.00;;;5.80;99.90;;;;;;5134362;27;20217;-76
2023/12/18 21:41:41;;;;;;;8.17;3.37;;;5.80;99.90;;;;;;5134600;27;20201;-76